createdAt,value
2023-05-09T00:01:32.648Z,15.20
2023-05-09T00:04:00.281Z,15.20
2023-05-09T00:06:27.800Z,15.20
2023-05-09T00:08:55.797Z,15.20
2023-05-09T00:11:23.011Z,15.20
2023-05-09T00:13:52.024Z,15.20
2023-05-09T00:16:20.710Z,15.20
2023-05-09T00:18:47.809Z,15.10
2023-05-09T00:21:14.825Z,15.10
2023-05-09T00:23:41.782Z,15.10
2023-05-09T00:26:10.815Z,15.10
2023-05-09T00:28:40.288Z,15.10
2023-05-09T00:31:07.413Z,15.20
2023-05-09T00:33:34.552Z,15.20
2023-05-09T00:36:01.824Z,15.20
2023-05-09T00:38:29.178Z,15.20
2023-05-09T00:40:56.505Z,15.20
2023-05-09T00:43:23.599Z,15.20
2023-05-09T00:45:51.076Z,15.10
2023-05-09T00:48:18.615Z,15.10
2023-05-09T00:50:47.139Z,15.10
2023-05-09T00:53:14.991Z,15.10
2023-05-09T00:55:42.277Z,15.10
2023-05-09T00:58:09.494Z,15.10
2023-05-09T01:00:36.740Z,15.10
2023-05-09T01:03:04.983Z,15.10
2023-05-09T01:06:02.219Z,15.10
2023-05-09T01:08:45.498Z,15.10
2023-05-09T01:11:25.206Z,15.10
2023-05-09T01:14:13.725Z,15.00
2023-05-09T01:16:51.074Z,15.00
2023-05-09T01:20:13.121Z,15.00
2023-05-09T01:22:54.887Z,15.00
2023-05-09T01:25:38.273Z,15.00
2023-05-09T01:28:19.453Z,15.00
2023-05-09T01:30:48.934Z,15.00
2023-05-09T01:33:20.463Z,15.00
2023-05-09T01:36:05.793Z,15.00
2023-05-09T01:38:33.172Z,15.00
2023-05-09T01:41:05.029Z,15.10
2023-05-09T01:43:34.583Z,15.00
2023-05-09T01:46:05.317Z,15.00
2023-05-09T01:48:36.270Z,15.00
2023-05-09T01:51:05.734Z,15.00
2023-05-09T01:53:34.624Z,15.00
2023-05-09T01:56:04.740Z,15.10
2023-05-09T01:58:33.787Z,15.00
2023-05-09T02:01:02.404Z,15.00
2023-05-09T02:03:30.415Z,15.00
2023-05-09T02:05:57.981Z,15.00
2023-05-09T02:08:26.732Z,15.00
2023-05-09T02:10:53.963Z,15.00
2023-05-09T02:13:21.180Z,15.00
2023-05-09T02:15:48.939Z,15.00
2023-05-09T02:18:17.359Z,15.00
2023-05-09T02:20:44.625Z,15.10
2023-05-09T02:23:12.165Z,15.10
2023-05-09T02:25:41.242Z,15.10
2023-05-09T02:28:10.241Z,15.10
2023-05-09T02:30:43.312Z,15.10
2023-05-09T02:33:12.792Z,15.10
2023-05-09T02:35:44.982Z,15.10
2023-05-09T02:38:14.071Z,15.10
2023-05-09T02:40:44.264Z,15.00
2023-05-09T02:43:11.616Z,15.10
2023-05-09T02:45:39.003Z,15.00
2023-05-09T02:48:08.714Z,15.10
2023-05-09T02:50:38.323Z,15.10
2023-05-09T02:53:06.230Z,15.10
2023-05-09T02:55:33.404Z,15.10
2023-05-09T02:58:12.849Z,15.10
2023-05-09T03:00:41.810Z,15.10
2023-05-09T03:03:09.342Z,15.10
2023-05-09T03:05:36.547Z,15.10
2023-05-09T03:08:04.075Z,15.10
2023-05-09T03:10:34.969Z,15.10
2023-05-09T03:13:02.898Z,15.10
2023-05-09T03:15:30.676Z,15.20
2023-05-09T03:17:59.848Z,15.20
2023-05-09T03:20:27.812Z,15.20
2023-05-09T03:22:55.210Z,15.20
2023-05-09T03:25:22.645Z,15.20
2023-05-09T03:27:49.645Z,15.20
2023-05-09T03:30:17.285Z,15.20
2023-05-09T03:32:46.539Z,15.20
2023-05-09T03:35:14.043Z,15.20
2023-05-09T03:37:41.345Z,15.10
2023-05-09T03:40:09.627Z,15.10
2023-05-09T03:42:43.883Z,15.10
2023-05-09T03:45:11.717Z,15.10
2023-05-09T03:47:38.940Z,15.10
2023-05-09T03:50:07.279Z,15.10
2023-05-09T03:52:37.215Z,15.20
2023-05-09T03:55:05.906Z,15.20
2023-05-09T03:57:35.677Z,15.20
2023-05-09T04:00:06.151Z,15.20
2023-05-09T04:02:42.397Z,15.20
2023-05-09T04:05:17.457Z,15.20
2023-05-09T04:07:45.478Z,15.20
2023-05-09T04:10:12.819Z,15.20
2023-05-09T04:12:40.101Z,15.20
2023-05-09T04:15:08.472Z,15.30
2023-05-09T04:17:36.185Z,15.30
2023-05-09T04:20:03.746Z,15.30
2023-05-09T04:22:31.124Z,15.30
2023-05-09T04:24:58.225Z,15.30
2023-05-09T04:27:25.740Z,15.30
2023-05-09T04:29:53.776Z,15.30
2023-05-09T04:32:22.515Z,15.30
2023-05-09T04:34:50.358Z,15.30
2023-05-09T04:37:21.452Z,15.30
2023-05-09T04:39:48.666Z,15.30
2023-05-09T04:42:21.381Z,15.40
2023-05-09T04:44:49.398Z,15.40
2023-05-09T04:47:16.630Z,15.40
2023-05-09T04:49:43.710Z,15.40
2023-05-09T04:52:10.798Z,15.40
2023-05-09T04:54:37.830Z,15.40
2023-05-09T04:57:17.128Z,15.40
2023-05-09T04:59:48.764Z,15.40
2023-05-09T05:02:16.068Z,15.40
2023-05-09T05:04:43.684Z,15.40
2023-05-09T05:07:10.781Z,15.40
2023-05-09T05:09:38.385Z,15.40
2023-05-09T05:12:09.306Z,15.40
2023-05-09T05:14:37.512Z,15.40
2023-05-09T05:17:07.961Z,15.40
2023-05-09T05:19:35.280Z,15.50
2023-05-09T05:22:04.346Z,15.40
2023-05-09T05:24:32.521Z,15.40
2023-05-09T05:26:59.569Z,15.40
2023-05-09T05:29:26.745Z,15.40
2023-05-09T05:31:53.985Z,15.40
2023-05-09T05:34:21.732Z,15.40
2023-05-09T05:36:49.108Z,15.30
2023-05-09T05:39:16.335Z,15.30
2023-05-09T05:41:43.424Z,15.30
2023-05-09T05:44:11.268Z,15.30
2023-05-09T05:46:39.101Z,15.30
2023-05-09T05:49:06.704Z,15.30
2023-05-09T05:51:34.585Z,15.30
2023-05-09T05:54:03.063Z,15.20
2023-05-09T05:56:30.751Z,15.20
2023-05-09T05:58:58.305Z,15.20
2023-05-09T06:01:25.708Z,15.30
2023-05-09T06:03:55.813Z,15.30
2023-05-09T06:06:27.147Z,15.30
2023-05-09T06:08:55.649Z,15.30
2023-05-09T06:11:23.928Z,15.40
2023-05-09T06:13:51.099Z,15.40
2023-05-09T06:16:20.307Z,15.40
2023-05-09T06:18:53.319Z,15.40
2023-05-09T06:21:22.160Z,15.40
2023-05-09T06:24:05.885Z,15.50
2023-05-09T06:26:36.786Z,15.50
2023-05-09T06:29:06.296Z,15.70
2023-05-09T06:31:38.561Z,15.80
2023-05-09T06:34:06.234Z,15.80
2023-05-09T06:36:34.605Z,15.80
2023-05-09T06:39:01.825Z,15.90
2023-05-09T06:41:28.965Z,15.90
2023-05-09T06:43:56.219Z,16.00
2023-05-09T06:46:23.420Z,16.00
2023-05-09T06:48:50.576Z,16.00
2023-05-09T06:51:17.738Z,16.00
2023-05-09T06:53:44.807Z,16.00
2023-05-09T06:56:12.524Z,15.90
2023-05-09T06:58:39.911Z,16.00
2023-05-09T07:01:07.082Z,16.00
2023-05-09T07:03:34.283Z,16.00
2023-05-09T07:06:01.449Z,16.10
2023-05-09T07:08:28.524Z,16.10
2023-05-09T07:10:55.752Z,16.20
2023-05-09T07:13:23.018Z,16.20
2023-05-09T07:15:50.526Z,16.20
2023-05-09T07:18:17.696Z,16.20
2023-05-09T07:20:44.816Z,16.20
2023-05-09T07:23:11.832Z,16.20
2023-05-09T07:25:38.915Z,16.20
2023-05-09T07:28:06.509Z,16.20
2023-05-09T07:30:33.700Z,16.20
2023-05-09T07:33:01.540Z,16.20
2023-05-09T07:35:29.051Z,16.30
2023-05-09T07:37:56.250Z,16.40
2023-05-09T07:40:23.339Z,16.50
2023-05-09T07:42:51.564Z,16.50
2023-05-09T07:45:19.937Z,16.60
2023-05-09T07:47:48.462Z,16.70
2023-05-09T07:50:16.973Z,16.80
2023-05-09T07:52:44.181Z,17.00
2023-05-09T07:55:12.388Z,17.10
2023-05-09T07:57:40.052Z,17.20
2023-05-09T08:00:08.918Z,17.30
2023-05-09T08:02:40.630Z,17.40
2023-05-09T08:05:11.339Z,17.40
2023-05-09T08:07:38.700Z,17.30
2023-05-09T08:10:06.856Z,17.20
2023-05-09T08:12:33.984Z,17.30
2023-05-09T08:15:01.057Z,17.30
2023-05-09T08:17:28.189Z,17.20
2023-05-09T08:19:55.643Z,17.30
2023-05-09T08:22:22.928Z,17.30
2023-05-09T08:24:50.146Z,17.50
2023-05-09T08:27:17.281Z,17.60
2023-05-09T08:29:44.363Z,17.70
2023-05-09T08:32:11.613Z,17.60
2023-05-09T08:34:38.794Z,17.60
2023-05-09T08:37:05.958Z,17.70
2023-05-09T08:39:34.998Z,17.70
2023-05-09T08:42:03.439Z,17.80
2023-05-09T08:44:32.255Z,17.80
2023-05-09T08:47:02.178Z,18.00
2023-05-09T08:49:30.045Z,18.20
2023-05-09T08:51:57.494Z,18.20
2023-05-09T08:54:25.199Z,18.20
2023-05-09T08:56:52.412Z,18.10
2023-05-09T08:59:19.786Z,17.90
2023-05-09T09:01:47.198Z,17.90
2023-05-09T09:04:14.473Z,17.90
2023-05-09T09:06:42.798Z,17.90
2023-05-09T09:09:11.862Z,18.00
2023-05-09T09:11:42.228Z,18.10
2023-05-09T09:14:20.304Z,18.30
2023-05-09T09:16:49.122Z,18.40
2023-05-09T09:19:18.130Z,18.40
2023-05-09T09:21:51.075Z,18.60
2023-05-09T09:24:24.919Z,18.70
2023-05-09T09:26:52.538Z,18.50
2023-05-09T09:29:21.097Z,18.40
2023-05-09T09:31:53.421Z,18.30
2023-05-09T09:34:23.251Z,18.20
2023-05-09T09:36:50.978Z,18.10
2023-05-09T09:39:18.296Z,18.10
2023-05-09T09:41:45.917Z,18.20
2023-05-09T09:44:21.983Z,18.20
2023-05-09T09:46:52.669Z,18.40
2023-05-09T09:49:25.172Z,18.60
2023-05-09T09:51:57.788Z,18.70
2023-05-09T09:54:28.229Z,18.70
2023-05-09T09:56:56.515Z,18.90
2023-05-09T09:59:26.524Z,18.90
2023-05-09T10:02:07.442Z,19.00
2023-05-09T10:04:38.818Z,19.30
2023-05-09T10:07:12.866Z,19.30
2023-05-09T10:09:43.795Z,19.60
2023-05-09T10:12:12.133Z,19.70
2023-05-09T10:14:42.357Z,19.80
2023-05-09T10:17:13.197Z,20.00
2023-05-09T10:19:45.685Z,19.90
2023-05-09T10:22:16.546Z,20.00
2023-05-09T10:25:03.971Z,20.10
2023-05-09T10:27:35.663Z,20.10
2023-05-09T10:30:07.635Z,20.30
2023-05-09T10:32:50.056Z,20.50
2023-05-09T10:35:19.843Z,20.60
2023-05-09T10:37:47.784Z,20.80
2023-05-09T10:40:15.747Z,20.80
2023-05-09T10:42:44.198Z,20.80
2023-05-09T10:45:12.855Z,20.80
2023-05-09T10:47:41.879Z,20.90
2023-05-09T10:50:13.023Z,21.00
2023-05-09T10:53:04.878Z,20.90
2023-05-09T10:55:56.524Z,20.80
2023-05-09T10:58:26.607Z,20.70
2023-05-09T11:00:57.562Z,20.60
2023-05-09T11:03:29.570Z,20.50
2023-05-09T11:05:58.925Z,20.50
2023-05-09T11:08:29.088Z,20.60
2023-05-09T11:11:02.328Z,20.70
2023-05-09T11:13:38.456Z,20.80
2023-05-09T11:16:10.091Z,20.90
2023-05-09T11:18:52.820Z,21.20
2023-05-09T11:21:20.929Z,21.20
2023-05-09T11:23:48.889Z,21.10
2023-05-09T11:26:16.747Z,21.20
2023-05-09T11:28:53.988Z,21.00
2023-05-09T11:31:21.304Z,21.00
2023-05-09T11:33:55.202Z,21.10
2023-05-09T11:36:31.953Z,21.20
2023-05-09T11:39:05.301Z,21.20
2023-05-09T11:41:46.297Z,21.20
2023-05-09T11:44:19.429Z,21.10
2023-05-09T11:46:48.700Z,21.00
2023-05-09T11:49:17.209Z,21.10
2023-05-09T11:51:44.404Z,21.10
2023-05-09T11:54:13.672Z,21.20
2023-05-09T11:56:42.146Z,21.20
2023-05-09T11:59:10.551Z,21.30
2023-05-09T12:01:37.879Z,21.40
2023-05-09T12:04:07.880Z,21.50
2023-05-09T12:06:35.370Z,21.60
2023-05-09T12:09:02.575Z,21.80
2023-05-09T12:11:32.348Z,21.60
2023-05-09T12:13:59.771Z,21.60
2023-05-09T12:16:26.959Z,21.60
2023-05-09T12:18:54.773Z,21.70
2023-05-09T12:21:22.095Z,21.70
2023-05-09T12:23:51.674Z,21.50
2023-05-09T12:26:22.764Z,21.60
2023-05-09T12:28:50.797Z,21.50
2023-05-09T12:31:18.611Z,21.40
2023-05-09T12:33:46.107Z,21.30
2023-05-09T12:36:14.446Z,21.40
2023-05-09T12:38:52.805Z,21.40
2023-05-09T12:41:35.102Z,21.50
2023-05-09T12:44:04.594Z,21.70
2023-05-09T12:46:32.017Z,21.70
2023-05-09T12:48:59.608Z,21.80
2023-05-09T12:51:26.733Z,21.80
2023-05-09T12:53:53.979Z,21.90
2023-05-09T12:56:25.497Z,21.90
2023-05-09T12:58:54.965Z,21.80
2023-05-09T13:01:27.425Z,21.80
2023-05-09T13:04:04.377Z,21.60
2023-05-09T13:06:31.590Z,21.60
2023-05-09T13:09:05.837Z,21.30
2023-05-09T13:11:33.210Z,21.10
2023-05-09T13:14:02.330Z,20.90
2023-05-09T13:16:29.585Z,20.70
2023-05-09T13:18:56.781Z,20.60
2023-05-09T13:21:24.031Z,20.50
2023-05-09T13:23:52.066Z,20.40
2023-05-09T13:26:19.621Z,20.10
2023-05-09T13:28:47.045Z,20.10
2023-05-09T13:31:15.513Z,19.90
2023-05-09T13:33:42.576Z,20.00
2023-05-09T13:36:09.894Z,19.90
2023-05-09T13:38:40.463Z,19.80
2023-05-09T13:41:08.222Z,19.80
2023-05-09T13:43:37.266Z,19.80
2023-05-09T13:46:04.530Z,19.80
2023-05-09T13:48:31.821Z,19.70
2023-05-09T13:51:00.422Z,19.60
2023-05-09T13:53:27.682Z,19.50
2023-05-09T13:55:54.951Z,19.50
2023-05-09T13:58:22.679Z,19.60
2023-05-09T14:00:50.257Z,19.70
2023-05-09T14:03:17.720Z,19.70
2023-05-09T14:05:44.952Z,19.70
2023-05-09T14:08:12.311Z,19.70
2023-05-09T14:10:39.582Z,19.70
2023-05-09T14:13:08.413Z,19.60
2023-05-09T14:15:36.039Z,19.40
2023-05-09T14:18:03.329Z,19.20
2023-05-09T14:20:30.634Z,19.20
2023-05-09T14:23:00.650Z,18.90
2023-05-09T14:25:27.876Z,18.90
2023-05-09T14:27:54.983Z,18.80
2023-05-09T14:30:23.572Z,18.70
2023-05-09T14:32:51.267Z,18.70
2023-05-09T14:35:18.569Z,18.70
2023-05-09T14:37:46.153Z,18.80
2023-05-09T14:40:13.589Z,18.70
2023-05-09T14:42:41.157Z,18.70
2023-05-09T14:45:12.011Z,18.50
2023-05-09T14:47:39.327Z,18.40
2023-05-09T14:50:10.116Z,18.30
2023-05-09T14:52:37.232Z,18.40
2023-05-09T14:55:06.187Z,18.30
2023-05-09T14:57:33.746Z,18.10
2023-05-09T15:00:12.492Z,18.20
2023-05-09T15:02:47.206Z,18.10
2023-05-09T15:05:14.674Z,18.10
2023-05-09T15:07:41.815Z,18.10
2023-05-09T15:10:09.684Z,18.10
2023-05-09T15:12:36.960Z,18.10
2023-05-09T15:15:19.363Z,18.00
2023-05-09T15:17:47.129Z,18.00
2023-05-09T15:20:18.263Z,18.00
2023-05-09T15:22:50.290Z,18.00
2023-05-09T15:25:17.991Z,17.90
2023-05-09T15:27:45.114Z,17.80
2023-05-09T15:30:12.792Z,17.70
2023-05-09T15:32:43.455Z,17.70
2023-05-09T15:35:10.928Z,17.70
2023-05-09T15:37:38.457Z,17.60
2023-05-09T15:40:07.215Z,17.50
2023-05-09T15:42:35.079Z,17.40
2023-05-09T15:45:03.374Z,17.50
2023-05-09T15:47:31.021Z,17.40
2023-05-09T15:49:58.189Z,17.30
2023-05-09T15:52:25.860Z,17.30
2023-05-09T15:54:55.131Z,17.20
2023-05-09T15:57:22.880Z,17.20
2023-05-09T15:59:50.040Z,17.10
2023-05-09T16:02:17.367Z,17.10
2023-05-09T16:04:44.616Z,17.10
2023-05-09T16:07:11.738Z,16.90
2023-05-09T16:09:38.741Z,17.00
2023-05-09T16:12:06.050Z,16.90
2023-05-09T16:14:33.190Z,16.90
2023-05-09T16:17:01.072Z,16.80
2023-05-09T16:19:28.205Z,16.70
2023-05-09T16:21:55.402Z,16.60
2023-05-09T16:24:22.733Z,16.60
2023-05-09T16:26:49.789Z,16.60
2023-05-09T16:29:16.921Z,16.50
2023-05-09T16:31:44.958Z,16.60
2023-05-09T16:34:12.112Z,16.60
2023-05-09T16:36:39.515Z,16.60
2023-05-09T16:39:06.432Z,16.60
2023-05-09T16:41:33.417Z,16.60
2023-05-09T16:44:00.463Z,16.60
2023-05-09T16:46:27.437Z,16.70
2023-05-09T16:48:55.217Z,16.70
2023-05-09T16:51:22.460Z,16.70
2023-05-09T16:53:49.570Z,16.60
2023-05-09T16:56:16.712Z,16.50
2023-05-09T16:58:44.868Z,16.30
2023-05-09T17:01:12.060Z,16.30
2023-05-09T17:03:39.995Z,16.20
2023-05-09T17:06:07.540Z,16.20
2023-05-09T17:08:34.819Z,16.20
2023-05-09T17:11:01.840Z,16.20
2023-05-09T17:13:28.918Z,16.20
2023-05-09T17:15:56.993Z,16.10
2023-05-09T17:18:36.026Z,16.10
2023-05-09T17:21:03.805Z,16.00
2023-05-09T17:23:30.810Z,16.00
2023-05-09T17:25:57.891Z,15.90
2023-05-09T17:28:25.124Z,15.90
2023-05-09T17:30:52.087Z,15.90
2023-05-09T17:33:19.323Z,15.80
2023-05-09T17:35:49.425Z,15.80
2023-05-09T17:38:17.377Z,15.80
2023-05-09T17:40:44.908Z,15.80
2023-05-09T17:43:13.337Z,15.70
2023-05-09T17:45:40.536Z,15.80
2023-05-09T17:48:08.104Z,15.70
2023-05-09T17:50:35.168Z,15.70
2023-05-09T17:53:02.491Z,15.70
2023-05-09T17:55:29.706Z,15.70
2023-05-09T17:57:57.001Z,15.70
2023-05-09T18:00:24.212Z,15.70
2023-05-09T18:02:51.502Z,15.70
2023-05-09T18:05:18.798Z,15.70
2023-05-09T18:07:45.853Z,15.60
2023-05-09T18:10:13.106Z,15.60
2023-05-09T18:12:40.811Z,15.60
2023-05-09T18:15:08.604Z,15.60
2023-05-09T18:17:35.748Z,15.50
2023-05-09T18:20:05.265Z,15.50
2023-05-09T18:22:32.670Z,15.50
2023-05-09T18:25:01.299Z,15.50
2023-05-09T18:27:28.326Z,15.50
2023-05-09T18:29:55.703Z,15.50
2023-05-09T18:32:23.112Z,15.40
2023-05-09T18:34:50.453Z,15.40
2023-05-09T18:37:17.719Z,15.40
2023-05-09T18:39:44.856Z,15.40
2023-05-09T18:42:13.301Z,15.30
2023-05-09T18:44:41.686Z,15.30
2023-05-09T18:47:08.804Z,15.20
2023-05-09T18:49:36.169Z,15.20
2023-05-09T18:52:03.466Z,15.20
2023-05-09T18:54:30.744Z,15.20
2023-05-09T18:56:58.024Z,15.00
2023-05-09T18:59:25.241Z,15.00
2023-05-09T19:01:53.112Z,15.00
2023-05-09T19:04:21.593Z,15.00
2023-05-09T19:06:49.004Z,14.90
2023-05-09T19:09:16.659Z,14.90
2023-05-09T19:11:45.192Z,14.90
2023-05-09T19:14:12.431Z,14.90
2023-05-09T19:16:39.772Z,14.90
2023-05-09T19:19:06.990Z,14.80
2023-05-09T19:21:35.548Z,14.90
2023-05-09T19:24:04.680Z,14.80
2023-05-09T19:26:32.004Z,14.80
2023-05-09T19:29:00.630Z,14.80
2023-05-09T19:31:27.973Z,14.80
2023-05-09T19:33:55.107Z,14.70
2023-05-09T19:36:22.126Z,14.70
2023-05-09T19:38:49.221Z,14.70
2023-05-09T19:41:16.717Z,14.70
2023-05-09T19:43:43.959Z,14.70
2023-05-09T19:46:11.218Z,14.70
2023-05-09T19:48:38.332Z,14.60
2023-05-09T19:51:05.693Z,14.60
2023-05-09T19:53:32.796Z,14.60
2023-05-09T19:55:59.791Z,14.60
2023-05-09T19:58:27.651Z,14.60
2023-05-09T20:00:54.782Z,14.50
2023-05-09T20:03:21.832Z,14.50
2023-05-09T20:05:49.017Z,14.50
2023-05-09T20:08:16.079Z,14.60
2023-05-09T20:10:43.434Z,14.50
2023-05-09T20:13:10.649Z,14.50
2023-05-09T20:15:37.900Z,14.50
2023-05-09T20:18:07.112Z,14.50
2023-05-09T20:20:34.685Z,14.50
2023-05-09T20:23:02.181Z,14.50
2023-05-09T20:25:29.483Z,14.50
2023-05-09T20:27:56.651Z,14.50
2023-05-09T20:30:23.915Z,14.50
2023-05-09T20:32:51.650Z,14.50
2023-05-09T20:35:19.265Z,14.50
2023-05-09T20:37:46.733Z,14.50
2023-05-09T20:40:14.369Z,14.50
2023-05-09T20:42:41.699Z,14.50
2023-05-09T20:45:09.688Z,14.40
2023-05-09T20:47:36.856Z,14.40
2023-05-09T20:50:04.484Z,14.40
2023-05-09T20:52:31.706Z,14.40
2023-05-09T20:54:59.268Z,14.40
2023-05-09T20:57:26.473Z,14.40
2023-05-09T20:59:53.700Z,14.40
2023-05-09T21:02:20.907Z,14.40
2023-05-09T21:04:48.205Z,14.30
2023-05-09T21:07:19.092Z,14.40
2023-05-09T21:09:47.477Z,14.30
2023-05-09T21:12:14.881Z,14.30
2023-05-09T21:14:41.973Z,14.30
2023-05-09T21:17:09.574Z,14.30
2023-05-09T21:19:36.874Z,14.30
2023-05-09T21:22:04.143Z,14.30
2023-05-09T21:24:31.355Z,14.30
2023-05-09T21:26:58.401Z,14.30
2023-05-09T21:29:25.448Z,14.20
2023-05-09T21:31:52.994Z,14.20
2023-05-09T21:34:20.334Z,14.20
2023-05-09T21:36:47.367Z,14.20
2023-05-09T21:39:14.456Z,14.20
2023-05-09T21:41:43.276Z,14.20
2023-05-09T21:44:12.054Z,14.20
2023-05-09T21:46:39.400Z,14.20
2023-05-09T21:49:06.522Z,14.20
2023-05-09T21:51:34.926Z,14.10
2023-05-09T21:54:02.239Z,14.20
2023-05-09T21:56:29.678Z,14.20
2023-05-09T21:58:56.710Z,14.10
2023-05-09T22:01:23.806Z,14.10
2023-05-09T22:03:51.564Z,14.10
2023-05-09T22:06:18.650Z,14.10
2023-05-09T22:08:47.689Z,14.10
2023-05-09T22:11:15.271Z,14.10
2023-05-09T22:13:43.491Z,14.10
2023-05-09T22:16:10.811Z,14.10
2023-05-09T22:18:37.789Z,14.20
2023-05-09T22:21:05.200Z,14.20
2023-05-09T22:23:32.271Z,14.20
2023-05-09T22:25:59.331Z,14.10
2023-05-09T22:28:27.753Z,14.10
2023-05-09T22:30:54.897Z,14.20
2023-05-09T22:33:22.167Z,14.20
2023-05-09T22:35:49.179Z,14.20
2023-05-09T22:38:16.305Z,14.10
2023-05-09T22:40:44.032Z,14.20
2023-05-09T22:43:11.638Z,14.20
2023-05-09T22:45:38.786Z,14.20
2023-05-09T22:48:06.518Z,14.20
2023-05-09T22:50:35.053Z,14.10
2023-05-09T22:53:02.245Z,14.10
2023-05-09T22:55:29.475Z,14.10
2023-05-09T22:57:56.531Z,14.10
2023-05-09T23:00:23.520Z,14.00
2023-05-09T23:02:50.746Z,13.90
2023-05-09T23:05:18.004Z,13.90
2023-05-09T23:07:45.160Z,13.90
2023-05-09T23:10:12.245Z,13.90
2023-05-09T23:12:39.283Z,13.80
2023-05-09T23:15:07.529Z,13.70
2023-05-09T23:17:34.926Z,13.70
2023-05-09T23:20:04.155Z,13.60
2023-05-09T23:22:31.608Z,13.50
2023-05-09T23:25:00.789Z,13.40
2023-05-09T23:27:28.387Z,13.40
2023-05-09T23:29:55.774Z,13.30
2023-05-09T23:32:22.976Z,13.30
2023-05-09T23:34:50.104Z,13.20
2023-05-09T23:37:17.361Z,13.20
2023-05-09T23:39:44.488Z,13.20
2023-05-09T23:42:12.373Z,13.20
2023-05-09T23:44:39.462Z,13.10
2023-05-09T23:47:06.864Z,13.10
2023-05-09T23:49:34.021Z,13.10
2023-05-09T23:52:01.299Z,13.10
2023-05-09T23:54:28.781Z,13.10
2023-05-09T23:56:59.118Z,13.10
2023-05-09T23:59:26.200Z,13.00
